Viradouro, Brazil
Current Conditions -  °F | °C
As of 3:00 PM on Thursday 27 Nov 2014 (Local Time) from SBRP Reporting Station
Scattered Clouds Scattered Clouds  
Wind Chill: 84°   Ceiling: Unl
Heat Index: 87°   Visibility: 6mi
Dew Point: 68°   Wind: 6mph
Humidity: 58%   Direction: 330°NNW
Pressure: 29.85"   Gusts: NA
Location:  20.87°S, 48.3°W
Report Text: SBRP 271700Z 33005KT 9999 SCT030 SCT080 29/20 Q1011
Loading
Personal Weather Stations






























Interactive Weather Map New forecast layout! Learn more

10-Day Weather Forecast

Advertisements
Track Severe Weather on mobile